»·PEaware :: DAL1187 KLAS-KLAX

DAL1187 :: KLAS-KLAX

FLIGHT INFORMATION

Flight Status: Arrived
Operator:
Delta Air Lines
More flights by this operator :: More flights under this callsign
Pilot: Joe C. (22377)
Aircraft: BOEING 757-200
(B752)
More flights by this aircraft type
Origin: KLAS McCarran Intl
United States
Destination: KLAX Los Angeles Intl
United States
More flights between these airports :: More routes between these airports
Route: MCCRN5 TNP SEAVU2
File this flight plan on PilotEdge
Remarks: Sample flight plan
Altitude:
(Current/Filed)
300ft
Speed:
(Current/Filed)
470kts
Departed: 03-Dec-18 02:48 PM
Arrived: 03-Dec-18 03:48 PM
Distance/Time
Traveled:
205nm/1:00
Distance/Time
To Go:
Arrived

Flight Plot

Page will automatically refresh every two minutes.

Flight plan parsing failed; only flown route is shown


Map Options




Map Legend


Flown Route
Filed Route
Departure Airport
Arrival Airport
Navaid (VOR, NDB)
Fix

Horizontal Profiles

Position Reports

Time Latitude Longitude Heading Altitude Ground
Speed
03-Dec-18 14:25 36.082771 -115.153597 90 2118ft 0kts
03-Dec-18 14:25 36.082771 -115.153595 90 2118ft 0kts
03-Dec-18 14:26 36.082771 -115.153595 90 2118ft 0kts
03-Dec-18 14:27 36.082771 -115.153595 90 2118ft 0kts
03-Dec-18 14:28 36.082771 -115.153595 90 2118ft 0kts
03-Dec-18 14:29 36.082771 -115.153595 90 2118ft 0kts
03-Dec-18 14:30 36.082771 -115.153595 90 2118ft 0kts
03-Dec-18 14:31 36.082771 -115.153595 90 2118ft 0kts
03-Dec-18 14:32 36.082771 -115.153595 90 2118ft 0kts
03-Dec-18 14:33 36.082771 -115.153593 90 2118ft 0kts
03-Dec-18 14:34 36.082773 -115.153845 90 2119ft 4kts
03-Dec-18 14:35 36.082773 -115.154153 90 2120ft 0kts
03-Dec-18 14:36 36.082773 -115.154153 90 2120ft 0kts
03-Dec-18 14:37 36.082773 -115.154153 90 2120ft 0kts
03-Dec-18 14:38 36.082773 -115.154153 90 2120ft 0kts
03-Dec-18 14:39 36.082683 -115.153856 129 2119ft 7kts
03-Dec-18 14:40 36.081828 -115.154272 245 2123ft 4kts
03-Dec-18 14:41 36.079707 -115.153901 154 2127ft 27kts
03-Dec-18 14:42 36.077907 -115.149035 95 2111ft 20kts
03-Dec-18 14:43 36.077531 -115.141777 89 2090ft 24kts
03-Dec-18 14:44 36.077537 -115.133058 90 2062ft 28kts
03-Dec-18 14:45 36.077540 -115.124747 89 2043ft 24kts
03-Dec-18 14:46 36.076467 -115.121882 262 2042ft 10kts
03-Dec-18 14:47 36.076395 -115.165134 269 2173ft 182kts
03-Dec-18 14:48 36.082574 -115.193401 303 2252ft 85kts
03-Dec-18 14:49 36.079635 -115.125598 89 2041ft 0kts
03-Dec-18 14:50 36.079635 -115.125596 89 2041ft 0kts
03-Dec-18 14:51 36.079636 -115.125572 89 2038ft 0kts
03-Dec-18 14:52 36.079636 -115.125572 89 2038ft 0kts
03-Dec-18 14:53 36.079636 -115.125572 89 2038ft 0kts
03-Dec-18 14:54 36.079555 -115.126113 193 2039ft 3kts
03-Dec-18 14:55 36.077633 -115.126092 120 2043ft 8kts
03-Dec-18 14:56 36.076867 -115.121209 180 2038ft 12kts
03-Dec-18 14:57 36.075897 -115.155753 267 2949ft 185kts
03-Dec-18 14:58 36.065719 -115.222296 228 5859ft 219kts
03-Dec-18 14:59 36.002762 -115.257713 203 7003ft 284kts
03-Dec-18 15:00 35.930329 -115.292952 203 7004ft 281kts
03-Dec-18 15:01 35.859744 -115.327251 203 7005ft 280kts
03-Dec-18 15:02 35.789534 -115.361257 204 9165ft 288kts
03-Dec-18 15:03 35.711409 -115.352013 165 12022ft 321kts
03-Dec-18 15:04 35.618037 -115.321672 169 15036ft 378kts
03-Dec-18 15:05 35.511468 -115.289578 170 18027ft 419kts
03-Dec-18 15:06 35.397514 -115.255541 171 20962ft 445kts
03-Dec-18 15:07 35.276889 -115.219634 172 23812ft 463kts
03-Dec-18 15:08 35.150351 -115.188061 185 26290ft 461kts
03-Dec-18 15:09 35.036317 -115.232773 214 28762ft 425kts
03-Dec-18 15:10 34.931625 -115.293932 215 30186ft 411kts
03-Dec-18 15:11 34.831361 -115.352749 215 30221ft 409kts
03-Dec-18 15:12 34.730534 -115.411717 215 30221ft 409kts
03-Dec-18 15:13 34.628884 -115.471012 215 30249ft 408kts
03-Dec-18 15:14 34.528852 -115.529204 215 30275ft 408kts
03-Dec-18 15:15 34.428413 -115.587478 215 30275ft 408kts
03-Dec-18 15:16 34.326180 -115.646631 215 30274ft 409kts
03-Dec-18 15:17 34.230100 -115.702077 214 30289ft 409kts
03-Dec-18 15:18 34.131517 -115.770874 238 29817ft 394kts
03-Dec-18 15:19 34.095881 -115.890312 261 28372ft 386kts
03-Dec-18 15:20 34.076090 -116.015228 263 26769ft 385kts
03-Dec-18 15:21 34.056954 -116.142793 263 25001ft 395kts
03-Dec-18 15:22 34.037381 -116.272862 262 23593ft 401kts
03-Dec-18 15:23 34.017643 -116.403066 262 22308ft 402kts
03-Dec-18 15:24 34.001555 -116.534181 267 21078ft 391kts
03-Dec-18 15:25 33.991441 -116.659971 266 19715ft 387kts
03-Dec-18 15:26 33.981092 -116.787721 266 18244ft 383kts
03-Dec-18 15:27 33.971143 -116.908857 266 17288ft 333kts
03-Dec-18 15:28 33.962351 -117.015322 265 17150ft 327kts
03-Dec-18 15:29 33.953473 -117.121350 265 17013ft 323kts
03-Dec-18 15:30 33.944346 -117.228907 265 17006ft 324kts
03-Dec-18 15:31 33.922390 -117.327569 261 17028ft 325kts
03-Dec-18 15:32 33.875694 -117.408192 201 16998ft 351kts
03-Dec-18 15:33 33.781759 -117.401524 202 17003ft 362kts
03-Dec-18 15:34 33.734718 -117.487248 280 14985ft 332kts
03-Dec-18 15:35 33.786985 -117.572269 310 12555ft 331kts
03-Dec-18 15:36 33.846467 -117.650821 307 10177ft 305kts
03-Dec-18 15:37 33.875676 -117.726519 296 10034ft 267kts
03-Dec-18 15:38 33.907705 -117.802635 296 9994ft 274kts
03-Dec-18 15:39 33.941764 -117.885180 296 8541ft 281kts
03-Dec-18 15:40 33.973758 -117.967394 286 6789ft 284kts
03-Dec-18 15:41 33.964852 -118.060807 261 5036ft 288kts
03-Dec-18 15:42 33.959563 -118.151105 272 3587ft 278kts
03-Dec-18 15:43 33.951160 -118.236953 262 3040ft 225kts
03-Dec-18 15:44 33.945530 -118.299562 264 1798ft 175kts
03-Dec-18 15:45 33.940671 -118.350200 262 634ft 131kts
03-Dec-18 15:46 33.936161 -118.394395 264 109ft 107kts
03-Dec-18 15:47 33.936160 -118.403387 289 120ft 0kts

Navigation Log

Ident Type
Flight plan parsing failed, navigation log unavailable